Gilman, Connecticut
Current Conditions -  °F | °C
As of 6:52 PM on Friday 31 Oct 2014 (Local Time) from KIJD Reporting Station
Light Rain Light Rain  
Wind Chill: 45°   Ceiling: 3300
Heat Index: 48°   Visibility: 8mi
Dew Point: 42°   Wind: 7mph
Humidity: 80%   Direction: 30°NNE
Pressure: 29.97"   Gusts: NA
Location:  41.56°N, 72.13°W
Report Text: KIJD 312252Z AUTO 03006KT 8SM -RA OVC033 09/06 A2997 RMK AO2 RAB11 SLP149 P0001 T00890056
Loading
Personal Weather Stations






























Interactive Weather Map
Tropical Storm Tracking
New forecast layout! Learn more

10-Day Weather Forecast

Advertisements
Track Severe Weather on mobile